createdAt,value
2022-08-12T00:02:47.262Z,101092.88
2022-08-12T00:06:09.581Z,101095.16
2022-08-12T00:09:30.286Z,101094.44
2022-08-12T00:12:50.559Z,101087.44
2022-08-12T00:16:11.501Z,101096.56
2022-08-12T00:19:32.301Z,101094.16
2022-08-12T00:22:53.064Z,101094.75
2022-08-12T00:26:23.696Z,101096.44
2022-08-12T00:29:47.942Z,101096.88
2022-08-12T00:33:11.102Z,101093.59
2022-08-12T00:36:35.056Z,101102.13
2022-08-12T00:39:57.871Z,101095.41
2022-08-12T00:43:00.123Z,101091.00
2022-08-12T00:46:20.755Z,101099.69
2022-08-12T00:49:24.026Z,101097.41
2022-08-12T00:52:25.837Z,101100.56
2022-08-12T00:55:27.797Z,101094.53
2022-08-12T00:58:33.027Z,101096.41
2022-08-12T01:02:02.058Z,101093.25
2022-08-12T01:05:25.199Z,101097.25
2022-08-12T01:08:49.842Z,101084.97
2022-08-12T01:11:52.377Z,101096.25
2022-08-12T01:14:54.577Z,101098.09
2022-08-12T01:17:56.586Z,101100.94
2022-08-12T01:21:30.661Z,101099.09
2022-08-12T01:25:06.757Z,101090.09
2022-08-12T01:28:13.585Z,101091.41
2022-08-12T01:31:17.749Z,101081.94
2022-08-12T01:34:35.923Z,101092.22
2022-08-12T01:38:00.008Z,101085.34
2022-08-12T01:41:03.262Z,101092.63
2022-08-12T01:44:06.480Z,101088.94
2022-08-12T01:47:25.788Z,101080.09
2022-08-12T01:51:06.118Z,101088.34
2022-08-12T01:54:12.567Z,101082.47
2022-08-12T01:57:58.299Z,101079.78
2022-08-12T02:00:58.973Z,101075.50
2022-08-12T02:04:41.379Z,101082.91
2022-08-12T02:08:20.186Z,101079.63
2022-08-12T02:11:29.128Z,101080.19
2022-08-12T02:14:57.713Z,101082.88
2022-08-12T02:18:13.005Z,101077.59
2022-08-12T02:21:36.305Z,101069.59
2022-08-12T02:24:40.043Z,101073.44
2022-08-12T02:27:45.734Z,101074.56
2022-08-12T02:30:47.894Z,101071.56
2022-08-12T02:33:49.943Z,101077.00
2022-08-12T02:36:55.981Z,101077.84
2022-08-12T02:40:03.504Z,101069.84
2022-08-12T02:43:20.109Z,101068.97
2022-08-12T02:46:34.813Z,101077.84
2022-08-12T02:49:44.567Z,101079.09
2022-08-12T02:52:48.126Z,101082.03
2022-08-12T02:55:49.826Z,101067.06
2022-08-12T02:58:51.536Z,101065.63
2022-08-12T03:01:56.720Z,101072.91
2022-08-12T03:05:01.344Z,101074.03
2022-08-12T03:08:04.982Z,101063.59
2022-08-12T03:11:23.653Z,101069.88
2022-08-12T03:14:29.578Z,101073.81
2022-08-12T03:17:36.631Z,101075.22
2022-08-12T03:20:40.631Z,101080.19
2022-08-12T03:23:45.799Z,101081.19
2022-08-12T03:26:48.858Z,101078.75
2022-08-12T03:29:52.336Z,101077.31
2022-08-12T03:32:56.453Z,101072.44
2022-08-12T03:36:01.566Z,101072.56
2022-08-12T03:39:12.063Z,101074.69
2022-08-12T03:42:37.548Z,101067.25
2022-08-12T03:45:57.688Z,101071.31
2022-08-12T03:49:17.869Z,101065.44
2022-08-12T03:52:38.694Z,101066.09
2022-08-12T03:55:59.637Z,101060.50
2022-08-12T03:59:22.054Z,101066.16
2022-08-12T04:02:25.198Z,101074.56
2022-08-12T04:05:54.479Z,101076.63
2022-08-12T04:08:53.929Z,101072.22
2022-08-12T04:12:14.105Z,101074.09
2022-08-12T04:15:19.765Z,101074.09
2022-08-12T04:18:21.644Z,101073.63
2022-08-12T04:21:25.246Z,101062.06
2022-08-12T04:24:27.776Z,101062.81
2022-08-12T04:27:31.472Z,101077.06
2022-08-12T04:30:33.946Z,101076.16
2022-08-12T04:33:37.099Z,101071.88
2022-08-12T04:36:40.800Z,101069.91
2022-08-12T04:39:44.487Z,101070.53
2022-08-12T04:42:46.093Z,101068.41
2022-08-12T04:45:49.562Z,101067.41
2022-08-12T04:48:52.495Z,101066.44
2022-08-12T04:51:59.418Z,101064.31
2022-08-12T04:55:01.652Z,101067.38
2022-08-12T04:58:03.409Z,101064.97
2022-08-12T05:01:05.788Z,101070.59
2022-08-12T05:04:09.323Z,101059.25
2022-08-12T05:07:11.791Z,101063.72
2022-08-12T05:10:13.596Z,101066.19
2022-08-12T05:13:45.160Z,101069.09
2022-08-12T05:16:46.784Z,101064.72
2022-08-12T05:19:48.370Z,101063.31
2022-08-12T05:22:56.886Z,101071.63
2022-08-12T05:26:01.081Z,101068.00
2022-08-12T05:29:03.102Z,101072.31
2022-08-12T05:32:07.965Z,101068.72
2022-08-12T05:35:10.526Z,101078.44
2022-08-12T05:38:34.831Z,101065.84
2022-08-12T05:41:37.909Z,101073.25
2022-08-12T05:44:39.545Z,101076.97
2022-08-12T05:47:52.915Z,101080.25
2022-08-12T05:50:56.703Z,101064.00
2022-08-12T05:54:00.178Z,101081.72
2022-08-12T05:57:01.709Z,101085.84
2022-08-12T06:00:05.059Z,101091.81
2022-08-12T06:03:19.302Z,101092.50
2022-08-12T06:06:23.839Z,101100.91
2022-08-12T06:09:28.745Z,101084.91
2022-08-12T06:12:30.765Z,101085.91
2022-08-12T06:15:37.828Z,101091.69
2022-08-12T06:18:40.046Z,101086.59
2022-08-12T06:21:42.748Z,101085.66
2022-08-12T06:24:44.356Z,101085.91
2022-08-12T06:28:05.847Z,101085.97
2022-08-12T06:31:26.832Z,101094.69
2022-08-12T06:35:23.332Z,101091.78
2022-08-12T06:37:57.015Z,101104.56
2022-08-12T06:41:19.574Z,101094.44
2022-08-12T06:44:22.747Z,101100.59
2022-08-12T06:47:24.396Z,101099.22
2022-08-12T06:50:26.795Z,101096.72
2022-08-12T06:53:34.112Z,101095.88
2022-08-12T06:59:58.584Z,101097.94
2022-08-12T07:03:22.812Z,101096.53
2022-08-12T07:06:23.988Z,101091.75
2022-08-12T07:10:01.583Z,101097.72
2022-08-12T07:12:49.010Z,101097.69
2022-08-12T07:15:55.783Z,101104.28
2022-08-12T07:18:58.960Z,101109.66
2022-08-12T07:22:06.438Z,101105.88
2022-08-12T07:25:27.378Z,101109.84
2022-08-12T07:28:33.715Z,101111.09
2022-08-12T07:31:36.917Z,101109.78
2022-08-12T07:34:39.401Z,101115.97
2022-08-12T07:37:42.362Z,101110.84
2022-08-12T07:40:44.080Z,101121.19
2022-08-12T07:43:51.986Z,101124.03
2022-08-12T07:46:53.578Z,101123.22
2022-08-12T07:50:05.199Z,101117.28
2022-08-12T07:53:08.090Z,101117.84
2022-08-12T07:56:10.909Z,101118.88
2022-08-12T07:59:12.783Z,101123.31
2022-08-12T08:02:14.416Z,101122.88
2022-08-12T08:05:16.324Z,101114.84
2022-08-12T08:08:28.620Z,101119.22
2022-08-12T08:11:49.278Z,101115.06
2022-08-12T08:14:52.849Z,101113.09
2022-08-12T08:18:02.908Z,101118.25
2022-08-12T08:21:05.153Z,101127.03
2022-08-12T08:24:15.790Z,101120.63
2022-08-12T08:27:17.553Z,101116.28
2022-08-12T08:30:19.247Z,101120.84
2022-08-12T08:33:23.464Z,101119.84
2022-08-12T08:36:43.868Z,101119.25
2022-08-12T08:39:47.137Z,101117.84
2022-08-12T08:42:51.351Z,101119.22
2022-08-12T08:45:55.785Z,101116.72
2022-08-12T08:48:59.562Z,101112.47
2022-08-12T08:52:02.992Z,101118.88
2022-08-12T08:55:05.010Z,101117.03
2022-08-12T08:58:08.723Z,101117.94
2022-08-12T09:01:11.673Z,101118.59
2022-08-12T09:05:12.245Z,101115.88
2022-08-12T09:12:06.767Z,101113.59
2022-08-12T09:14:52.699Z,101103.03
2022-08-12T09:17:57.314Z,101102.63
2022-08-12T09:21:01.977Z,101107.09
2022-08-12T09:24:07.442Z,101099.25
2022-08-12T09:27:16.463Z,101103.09
2022-08-12T09:30:41.213Z,101104.34
2022-08-12T09:34:31.065Z,101094.22
2022-08-12T09:37:19.205Z,101090.78
2022-08-12T09:40:57.962Z,101090.78
2022-08-12T09:44:06.105Z,101083.56
2022-08-12T09:47:10.504Z,101084.19
2022-08-12T09:50:20.460Z,101091.81
2022-08-12T09:53:36.522Z,101078.84
2022-08-12T09:56:59.309Z,101079.28
2022-08-12T10:00:15.655Z,101071.16
2022-08-12T10:03:31.796Z,101068.66
2022-08-12T10:06:36.673Z,101066.94
2022-08-12T10:09:58.341Z,101058.00
2022-08-12T10:13:33.850Z,101057.16
2022-08-12T10:16:43.841Z,101057.34
2022-08-12T10:19:51.552Z,101044.59
2022-08-12T10:23:01.776Z,101046.28
2022-08-12T10:26:38.755Z,101036.28
2022-08-12T10:30:03.243Z,101040.66
2022-08-12T10:33:18.649Z,101029.19
2022-08-12T10:36:21.191Z,101031.09
2022-08-12T10:40:00.858Z,101034.13
2022-08-12T10:43:20.654Z,101023.75
2022-08-12T10:46:22.429Z,101033.03
2022-08-12T10:50:02.958Z,101022.19
2022-08-12T10:52:56.240Z,101016.84
2022-08-12T10:55:57.952Z,101021.06
2022-08-12T10:59:05.488Z,101016.75
2022-08-12T11:04:27.369Z,101008.63
2022-08-12T11:07:09.012Z,101018.03
2022-08-12T11:09:00.521Z,101014.22
2022-08-12T11:12:35.370Z,101009.09
2022-08-12T11:16:02.882Z,101009.28
2022-08-12T11:18:55.512Z,101009.06
2022-08-12T11:22:01.284Z,101003.94
2022-08-12T11:25:10.486Z,100995.19
2022-08-12T11:28:14.326Z,100993.53
2022-08-12T11:31:17.628Z,100984.41
2022-08-12T11:34:53.452Z,100992.47
2022-08-12T11:37:59.213Z,100991.44
2022-08-12T11:41:04.003Z,100993.09
2022-08-12T11:44:35.375Z,100982.72
2022-08-12T11:47:30.581Z,100981.47
2022-08-12T11:50:32.626Z,100980.66
2022-08-12T11:53:59.440Z,100985.06
2022-08-12T11:57:01.955Z,100980.16
2022-08-12T12:02:00.913Z,100974.66
2022-08-12T12:03:45.984Z,100969.16
2022-08-12T12:06:52.904Z,100966.56
2022-08-12T12:09:55.737Z,100968.50
2022-08-12T12:12:57.636Z,100962.50
2022-08-12T12:16:00.162Z,100965.91
2022-08-12T12:19:04.005Z,100969.72
2022-08-12T12:22:05.718Z,100968.44
2022-08-12T12:25:12.955Z,100960.16
2022-08-12T12:28:37.046Z,100953.59
2022-08-12T12:32:10.692Z,100965.09
2022-08-12T12:35:13.848Z,100952.56
2022-08-12T12:38:25.156Z,100948.59
2022-08-12T12:42:41.794Z,100948.34
2022-08-12T12:44:53.562Z,100940.22
2022-08-12T12:48:07.901Z,100940.66
2022-08-12T12:51:48.221Z,100947.47
2022-08-12T12:54:52.661Z,100935.03
2022-08-12T12:58:00.070Z,100922.91
2022-08-12T13:01:04.621Z,100931.69
2022-08-12T13:04:25.561Z,100923.59
2022-08-12T13:07:48.872Z,100924.00
2022-08-12T13:10:52.159Z,100928.69
2022-08-12T13:14:08.704Z,100919.53
2022-08-12T13:17:14.729Z,100923.78
2022-08-12T13:20:37.467Z,100928.22
2022-08-12T13:23:45.889Z,100923.06
2022-08-12T13:26:49.690Z,100923.25
2022-08-12T13:29:52.028Z,100914.28
2022-08-12T13:32:58.908Z,100915.97
2022-08-12T13:36:05.958Z,100899.09
2022-08-12T13:39:11.836Z,100917.31
2022-08-12T13:42:14.852Z,100916.63
2022-08-12T13:45:16.872Z,100911.53
2022-08-12T13:48:19.865Z,100919.22
2022-08-12T13:51:24.366Z,100903.53
2022-08-12T13:58:22.807Z,100894.56
2022-08-12T14:01:28.438Z,100888.81
2022-08-12T14:04:30.077Z,100890.97
2022-08-12T14:07:48.719Z,100882.41
2022-08-12T14:10:53.440Z,100885.81
2022-08-12T14:14:05.175Z,100882.38
2022-08-12T14:17:13.384Z,100891.75
2022-08-12T14:20:21.711Z,100889.13
2022-08-12T14:24:04.879Z,100888.72
2022-08-12T14:27:01.885Z,100876.47
2022-08-12T14:30:15.575Z,100873.53
2022-08-12T14:33:44.477Z,100886.81
2022-08-12T14:36:46.408Z,100879.91
2022-08-12T14:39:50.685Z,100872.34
2022-08-12T14:42:52.415Z,100875.56
2022-08-12T14:45:56.402Z,100874.53
2022-08-12T14:48:58.074Z,100877.13
2022-08-12T14:53:26.743Z,100871.13
2022-08-12T14:59:23.484Z,100860.75
2022-08-12T15:02:28.497Z,100849.25
2022-08-12T15:06:05.543Z,100855.16
2022-08-12T15:08:59.753Z,100857.69
2022-08-12T15:12:04.348Z,100858.16
2022-08-12T15:15:06.817Z,100852.00
2022-08-12T15:18:10.171Z,100852.94
2022-08-12T15:21:11.878Z,100846.41
2022-08-12T15:24:13.564Z,100856.00
2022-08-12T15:27:22.318Z,100850.50
2022-08-12T15:30:42.671Z,100855.81
2022-08-12T15:33:47.534Z,100849.03
2022-08-12T15:36:54.572Z,100845.41
2022-08-12T15:40:01.114Z,100850.31
2022-08-12T15:43:04.406Z,100855.63
2022-08-12T15:46:15.277Z,100849.03
2022-08-12T15:49:19.148Z,100839.28
2022-08-12T15:52:27.266Z,100835.50
2022-08-12T15:55:33.509Z,100846.59
2022-08-12T15:58:42.852Z,100837.25
2022-08-12T16:01:44.501Z,100839.00
2022-08-12T16:04:50.477Z,100838.59
2022-08-12T16:07:52.422Z,100838.91
2022-08-12T16:10:54.617Z,100840.03
2022-08-12T16:13:56.268Z,100834.09
2022-08-12T16:17:01.921Z,100830.47
2022-08-12T16:20:06.265Z,100832.03
2022-08-12T16:23:26.630Z,100827.16
2022-08-12T16:26:36.642Z,100831.03
2022-08-12T16:29:52.954Z,100825.31
2022-08-12T16:32:58.371Z,100821.72
2022-08-12T16:36:00.570Z,100818.50
2022-08-12T16:39:03.823Z,100820.63
2022-08-12T16:42:05.857Z,100816.41
2022-08-12T16:45:09.862Z,100809.22
2022-08-12T16:48:33.822Z,100808.63
2022-08-12T16:51:40.382Z,100809.44
2022-08-12T16:54:44.338Z,100810.16
2022-08-12T16:57:49.325Z,100808.91
2022-08-12T17:00:52.674Z,100807.44
2022-08-12T17:04:08.229Z,100808.31
2022-08-12T17:07:16.660Z,100803.63
2022-08-12T17:10:35.896Z,100804.97
2022-08-12T17:13:42.873Z,100798.59
2022-08-12T17:16:55.858Z,100801.81
2022-08-12T17:20:36.598Z,100803.09
2022-08-12T17:23:52.835Z,100801.84
2022-08-12T17:26:57.178Z,100805.94
2022-08-12T17:30:03.438Z,100797.44
2022-08-12T17:33:09.842Z,100802.78
2022-08-12T17:36:15.681Z,100805.34
2022-08-12T17:39:17.718Z,100808.09
2022-08-12T17:42:32.217Z,100796.06
2022-08-12T17:45:42.190Z,100793.75
2022-08-12T17:48:54.926Z,100795.03
2022-08-12T17:52:02.369Z,100799.94
2022-08-12T17:55:07.242Z,100798.72
2022-08-12T17:58:35.769Z,100804.84
2022-08-12T18:01:45.287Z,100800.63
2022-08-12T18:05:09.581Z,100802.34
2022-08-12T18:08:11.115Z,100803.81
2022-08-12T18:12:04.664Z,100805.31
2022-08-12T18:15:08.745Z,100815.25
2022-08-12T18:18:16.699Z,100815.00
2022-08-12T18:21:20.994Z,100820.06
2022-08-12T18:24:29.435Z,100814.97
2022-08-12T18:27:44.814Z,100825.09
2022-08-12T18:30:53.292Z,100820.63
2022-08-12T18:34:02.959Z,100823.13
2022-08-12T18:37:26.591Z,100824.28
2022-08-12T18:40:46.156Z,100826.56
2022-08-12T18:43:59.128Z,100829.69
2022-08-12T18:47:06.385Z,100825.09
2022-08-12T18:50:13.372Z,100825.38
2022-08-12T18:54:05.502Z,100823.41
2022-08-12T18:56:39.473Z,100828.78
2022-08-12T19:00:00.683Z,100837.09
2022-08-12T19:03:06.249Z,100830.41
2022-08-12T19:06:27.582Z,100835.06
2022-08-12T19:09:39.230Z,100835.13
2022-08-12T19:13:22.990Z,100844.81
2022-08-12T19:16:27.000Z,100845.22
2022-08-12T19:19:37.499Z,100847.13
2022-08-12T19:22:44.067Z,100847.69
2022-08-12T19:26:03.184Z,100853.44
2022-08-12T19:29:07.598Z,100856.47
2022-08-12T19:32:13.053Z,100851.84
2022-08-12T19:38:37.845Z,100856.31
2022-08-12T19:42:00.890Z,100860.94
2022-08-12T19:45:12.305Z,100857.09
2022-08-12T19:48:18.775Z,100864.91
2022-08-12T19:51:33.353Z,100859.22
2022-08-12T19:54:43.986Z,100849.72
2022-08-12T19:58:01.315Z,100855.41
2022-08-12T20:01:10.819Z,100854.81
2022-08-12T20:04:15.665Z,100856.75
2022-08-12T20:07:24.214Z,100856.44
2022-08-12T20:10:37.127Z,100859.16
2022-08-12T20:13:39.230Z,100863.81
2022-08-12T20:16:53.272Z,100868.50
2022-08-12T20:20:17.844Z,100860.16
2022-08-12T20:23:23.543Z,100866.50
2022-08-12T20:26:25.244Z,100863.97
2022-08-12T20:29:35.560Z,100867.56
2022-08-12T20:32:57.247Z,100879.22
2022-08-12T20:36:13.375Z,100866.09
2022-08-12T20:39:52.467Z,100875.44
2022-08-12T20:42:46.247Z,100872.75
2022-08-12T20:45:57.454Z,100872.41
2022-08-12T20:49:14.332Z,100876.53
2022-08-12T20:52:19.185Z,100877.19
2022-08-12T20:55:21.015Z,100876.84
2022-08-12T20:58:23.298Z,100877.72
2022-08-12T21:01:36.647Z,100881.97
2022-08-12T21:05:16.118Z,100882.31
2022-08-12T21:08:19.726Z,100877.88
2022-08-12T21:11:24.548Z,100879.06
2022-08-12T21:14:39.590Z,100881.28
2022-08-12T21:18:11.170Z,100888.09
2022-08-12T21:21:46.881Z,100880.94
2022-08-12T21:24:46.570Z,100881.59
2022-08-12T21:27:58.870Z,100886.56
2022-08-12T21:32:34.395Z,100884.63
2022-08-12T21:34:29.451Z,100890.72
2022-08-12T21:37:31.819Z,100888.53
2022-08-12T21:40:51.830Z,100891.75
2022-08-12T21:43:55.107Z,100884.56
2022-08-12T21:47:18.271Z,100888.31
2022-08-12T21:50:22.268Z,100884.56
2022-08-12T21:53:31.696Z,100879.94
2022-08-12T21:56:55.812Z,100884.19
2022-08-12T21:59:57.482Z,100886.69
2022-08-12T22:03:17.717Z,100883.59
2022-08-12T22:06:43.912Z,100885.13
2022-08-12T22:09:46.194Z,100894.66
2022-08-12T22:12:48.034Z,100888.66
2022-08-12T22:15:52.578Z,100894.44
2022-08-12T22:18:57.433Z,100901.91
2022-08-12T22:22:01.219Z,100890.16
2022-08-12T22:25:06.654Z,100887.44
2022-08-12T22:28:26.984Z,100899.38
2022-08-12T22:31:40.596Z,100888.78
2022-08-12T22:34:42.197Z,100894.22
2022-08-12T22:37:46.276Z,100893.38
2022-08-12T22:40:49.754Z,100898.13
2022-08-12T22:44:10.395Z,100889.09
2022-08-12T22:47:54.273Z,100892.84
2022-08-12T22:50:59.410Z,100883.16
2022-08-12T22:54:01.262Z,100886.19
2022-08-12T22:57:03.509Z,100879.03
2022-08-12T23:00:10.126Z,100877.34
2022-08-12T23:03:48.490Z,100882.78
2022-08-12T23:06:54.561Z,100880.50
2022-08-12T23:09:56.194Z,100875.38
2022-08-12T23:13:16.445Z,100880.97
2022-08-12T23:16:29.358Z,100872.31
2022-08-12T23:19:36.096Z,100868.38
2022-08-12T23:22:40.312Z,100869.84
2022-08-12T23:25:54.811Z,100873.06
2022-08-12T23:29:26.133Z,100873.22
2022-08-12T23:32:35.633Z,100866.69
2022-08-12T23:35:53.437Z,100879.91
2022-08-12T23:39:03.736Z,100882.13
2022-08-12T23:42:17.079Z,100880.88
2022-08-12T23:45:31.178Z,100884.22
2022-08-12T23:48:34.164Z,100877.56
2022-08-12T23:51:36.655Z,100876.47
2022-08-12T23:54:44.979Z,100878.66
2022-08-12T23:58:17.409Z,100882.47
